Time;durP1;ratioP1;P1;durP2;ratioP2;P2;SDS_P1;SDS_P2;PMS_P1;PMS_P2;Temp;Humidity;BMP_temperature;BMP_pressure;BME280_temperature;BME280_humidity;BME280_pressure;Samples;Min_cycle;Max_cycle;Signal;HPM_P1;HPM_P2
2021/11/26 00:02:27;;;;;;;5.85;3.38;;;6.30;72.60;;;;;;5029499;28;20036;-75
2021/11/26 00:04:54;;;;;;;6.43;3.97;;;6.30;72.50;;;;;;5029026;28;20033;-74
2021/11/26 00:07:21;;;;;;;4.63;3.28;;;6.30;72.50;;;;;;5029374;28;20163;-74
2021/11/26 00:09:48;;;;;;;5.10;3.58;;;6.30;72.50;;;;;;5029324;28;20056;-74
2021/11/26 00:12:14;;;;;;;6.35;4.55;;;6.40;72.60;;;;;;5027155;28;20504;-76
2021/11/26 00:15:09;;;;;;;5.75;3.70;;;6.40;72.60;;;;;;5038962;28;20452;-75
2021/11/26 00:17:44;;;;;;;7.53;4.00;;;6.40;72.60;;;;;;5047064;28;20032;-74
2021/11/26 00:20:11;;;;;;;6.18;3.72;;;6.40;72.50;;;;;;5047203;28;20253;-75
2021/11/26 00:22:37;;;;;;;5.40;3.38;;;6.40;72.50;;;;;;5048876;28;20036;-73
2021/11/26 00:25:03;;;;;;;6.65;3.40;;;6.40;73.00;;;;;;5048681;28;20439;-74
2021/11/26 00:27:29;;;;;;;6.18;3.88;;;6.50;72.70;;;;;;5047460;28;20051;-74
2021/11/26 00:29:55;;;;;;;6.35;3.58;;;6.50;72.60;;;;;;5046577;28;20033;-75
2021/11/26 00:32:21;;;;;;;4.65;3.30;;;6.50;72.60;;;;;;5048599;28;20091;-74
2021/11/26 00:34:47;;;;;;;5.65;3.38;;;6.50;72.60;;;;;;5048428;28;20049;-75
2021/11/26 00:37:13;;;;;;;5.93;3.30;;;6.60;72.80;;;;;;5047128;28;20119;-77
2021/11/26 00:39:39;;;;;;;4.65;3.05;;;6.50;72.60;;;;;;5048853;28;20095;-73
2021/11/26 00:42:05;;;;;;;5.15;3.33;;;6.60;72.70;;;;;;5047272;28;20021;-73
2021/11/26 00:44:31;;;;;;;6.50;3.45;;;6.60;72.70;;;;;;5048049;28;20036;-73
2021/11/26 00:46:57;;;;;;;4.28;2.85;;;6.60;72.70;;;;;;5048331;28;20151;-73
2021/11/26 00:49:23;;;;;;;4.15;3.05;;;6.60;72.60;;;;;;5047028;28;20104;-74
2021/11/26 00:51:49;;;;;;;5.85;3.30;;;6.60;72.60;;;;;;5048910;28;20029;-74
2021/11/26 00:54:15;;;;;;;7.30;3.72;;;6.70;72.70;;;;;;5048643;28;20029;-76
2021/11/26 00:56:41;;;;;;;4.55;3.47;;;6.70;72.70;;;;;;5048425;28;20021;-79
2021/11/26 00:59:06;;;;;;;6.20;3.35;;;6.70;72.70;;;;;;5048600;28;20090;-77
2021/11/26 01:01:33;;;;;;;4.82;2.63;;;6.70;72.70;;;;;;5049503;28;20052;-78
2021/11/26 01:03:59;;;;;;;5.70;3.25;;;6.70;72.70;;;;;;5051394;28;20040;-77
2021/11/26 01:06:24;;;;;;;4.47;2.60;;;6.70;72.70;;;;;;5063152;28;20025;-76
2021/11/26 01:08:51;;;;;;;8.00;4.63;;;6.70;72.60;;;;;;5071909;28;20048;-78
2021/11/26 01:11:17;;;;;;;6.43;3.35;;;6.80;72.80;;;;;;5055438;28;20078;-77
2021/11/26 01:13:43;;;;;;;7.85;2.70;;;6.80;72.70;;;;;;5048337;28;20068;-77
2021/11/26 01:16:12;;;;;;;10.00;3.50;;;6.80;72.70;;;;;;5046757;28;20123;-76
2021/11/26 01:18:38;;;;;;;5.57;2.88;;;6.80;72.70;;;;;;5048432;28;20086;-77
2021/11/26 01:21:06;;;;;;;4.03;2.55;;;6.80;72.60;;;;;;5048024;28;20489;-74
2021/11/26 01:23:33;;;;;;;8.15;4.25;;;6.80;72.60;;;;;;5045881;28;20057;-75
2021/11/26 01:26:00;;;;;;;4.28;2.75;;;6.90;72.80;;;;;;5026306;28;20037;-74
2021/11/26 01:28:26;;;;;;;6.18;3.15;;;6.90;72.70;;;;;;5027958;28;20120;-75
2021/11/26 01:30:52;;;;;;;6.90;2.90;;;6.90;72.70;;;;;;5027713;28;20136;-74
2021/11/26 01:33:20;;;;;;;5.50;2.80;;;6.90;72.70;;;;;;5026098;28;20068;-74
2021/11/26 01:35:50;;;;;;;6.10;3.08;;;6.90;72.60;;;;;;5026136;28;20053;-75
2021/11/26 01:38:17;;;;;;;6.10;3.40;;;6.90;72.60;;;;;;5026109;28;20041;-75
2021/11/26 01:40:43;;;;;;;3.78;2.83;;;6.90;72.60;;;;;;5026429;28;20030;-74
2021/11/26 01:43:12;;;;;;;5.25;3.10;;;6.90;72.60;;;;;;5027350;28;20033;-76
2021/11/26 01:45:50;;;;;;;4.25;2.90;;;6.90;72.60;;;;;;5027427;28;20029;-75
2021/11/26 01:48:17;;;;;;;6.72;3.17;;;6.90;72.60;;;;;;5025893;28;20033;-77
2021/11/26 01:50:44;;;;;;;4.22;2.83;;;6.90;72.50;;;;;;5027452;28;20040;-76
2021/11/26 01:53:10;;;;;;;6.00;2.50;;;7.00;72.70;;;;;;5026946;28;20045;-78
2021/11/26 01:55:36;;;;;;;9.95;3.05;;;6.90;72.50;;;;;;5027294;28;20032;-74
2021/11/26 01:58:03;;;;;;;6.68;2.88;;;7.00;72.70;;;;;;5026114;28;20400;-77
2021/11/26 02:00:31;;;;;;;4.80;2.40;;;7.00;72.60;;;;;;5026854;28;20396;-75
2021/11/26 02:02:58;;;;;;;4.65;2.90;;;7.00;73.10;;;;;;5026584;28;20034;-76
2021/11/26 02:05:24;;;;;;;6.18;2.72;;;7.00;72.60;;;;;;5026202;28;20031;-76
2021/11/26 02:07:50;;;;;;;7.25;2.20;;;7.00;72.60;;;;;;5027024;28;20033;-75
2021/11/26 02:10:17;;;;;;;4.18;2.50;;;7.00;72.60;;;;;;5026689;28;20025;-75
2021/11/26 02:12:43;;;;;;;7.00;3.20;;;7.00;72.50;;;;;;5025616;28;20041;-76
2021/11/26 02:15:15;;;;;;;6.22;2.75;;;7.10;72.70;;;;;;5025325;28;20033;-77
2021/11/26 02:17:41;;;;;;;5.85;3.20;;;7.10;72.60;;;;;;5026023;28;20392;-77
2021/11/26 02:20:19;;;;;;;4.45;3.05;;;7.10;72.60;;;;;;5026457;28;20029;-77
2021/11/26 02:22:45;;;;;;;6.10;2.25;;;7.10;72.60;;;;;;5026829;28;20071;-77
2021/11/26 02:25:12;;;;;;;6.38;2.67;;;7.10;72.60;;;;;;5026670;28;20032;-77
2021/11/26 02:27:38;;;;;;;4.40;2.25;;;7.10;72.60;;;;;;5025644;28;20126;-78
2021/11/26 02:30:17;;;;;;;6.60;2.38;;;7.10;72.60;;;;;;5026726;28;20037;-78
2021/11/26 02:32:56;;;;;;;3.88;2.35;;;7.10;72.50;;;;;;5057523;22;20049;-76
2021/11/26 02:35:23;;;;;;;4.88;2.05;;;7.10;72.50;;;;;;5029732;28;20064;-77
2021/11/26 02:37:50;;;;;;;4.25;2.17;;;7.10;72.50;;;;;;5047398;28;20120;-80
2021/11/26 02:40:18;;;;;;;4.40;2.20;;;7.10;72.50;;;;;;5027838;28;20477;-78
2021/11/26 02:42:44;;;;;;;7.10;1.98;;;7.20;72.60;;;;;;5026896;28;20470;-78
2021/11/26 02:45:12;;;;;;;5.13;2.03;;;7.20;72.60;;;;;;5028623;28;20055;-80
2021/11/26 02:47:39;;;;;;;3.85;2.53;;;7.20;72.60;;;;;;5049743;28;20029;-76
2021/11/26 02:50:07;;;;;;;3.78;2.30;;;7.20;72.50;;;;;;5049782;28;20025;-76
2021/11/26 02:52:35;;;;;;;5.32;2.35;;;7.20;72.50;;;;;;5049598;28;20037;-77
2021/11/26 02:55:01;;;;;;;4.47;2.17;;;7.30;72.70;;;;;;5050580;28;20496;-78
2021/11/26 02:57:27;;;;;;;5.40;2.13;;;7.30;72.70;;;;;;5049431;28;20489;-77
2021/11/26 02:59:53;;;;;;;3.33;1.70;;;7.30;72.70;;;;;;5049439;28;20025;-76
2021/11/26 03:02:19;;;;;;;4.35;2.10;;;7.30;72.70;;;;;;5049220;28;20049;-81
2021/11/26 03:04:45;;;;;;;4.38;1.65;;;7.30;72.60;;;;;;5050921;28;20036;-79
2021/11/26 03:07:11;;;;;;;4.57;1.95;;;7.40;72.80;;;;;;5049514;28;20025;-77
2021/11/26 03:09:38;;;;;;;5.57;2.35;;;7.40;72.70;;;;;;5049243;28;20437;-78
2021/11/26 03:12:06;;;;;;;3.63;2.00;;;7.30;72.50;;;;;;5050785;28;20029;-77
2021/11/26 03:14:32;;;;;;;5.47;2.42;;;7.40;72.60;;;;;;5050406;28;20374;-79
2021/11/26 03:16:58;;;;;;;5.70;2.13;;;7.40;72.60;;;;;;5049746;28;20542;-75
2021/11/26 03:19:24;;;;;;;3.65;1.90;;;7.40;72.50;;;;;;5051069;28;20039;-80
2021/11/26 03:21:51;;;;;;;5.72;1.88;;;7.40;72.50;;;;;;5050775;28;20055;-75
2021/11/26 03:24:17;;;;;;;4.40;1.88;;;7.40;72.50;;;;;;5050410;28;20025;-79
2021/11/26 03:26:44;;;;;;;5.05;2.45;;;7.40;72.40;;;;;;5048742;28;20075;-76
2021/11/26 03:29:10;;;;;;;6.55;1.70;;;7.50;72.60;;;;;;5049310;28;20039;-76
2021/11/26 03:31:36;;;;;;;5.57;1.60;;;7.40;72.40;;;;;;5044720;28;20123;-76
2021/11/26 03:34:02;;;;;;;4.72;1.77;;;7.50;72.50;;;;;;5038886;28;20077;-78
2021/11/26 03:36:28;;;;;;;5.25;1.70;;;7.50;72.50;;;;;;5029228;28;20475;-75
2021/11/26 03:38:54;;;;;;;7.00;1.70;;;7.40;72.30;;;;;;5030583;28;20113;-79
2021/11/26 03:41:20;;;;;;;4.72;1.75;;;7.50;72.50;;;;;;5033688;28;20060;-85
2021/11/26 03:43:47;;;;;;;5.65;2.03;;;7.50;72.50;;;;;;5049858;28;20035;-86
2021/11/26 03:46:16;;;;;;;7.63;2.13;;;7.50;72.40;;;;;;5050237;28;20035;-79
2021/11/26 03:48:43;;;;;;;3.97;1.95;;;7.50;72.40;;;;;;5049894;28;20052;-83
2021/11/26 03:51:09;;;;;;;5.28;1.83;;;7.50;72.40;;;;;;5049384;28;20132;-75
2021/11/26 03:53:36;;;;;;;3.80;1.63;;;7.50;72.40;;;;;;5049187;28;20045;-75
2021/11/26 03:56:02;;;;;;;3.88;1.60;;;7.50;72.40;;;;;;5065156;28;20029;-74
2021/11/26 03:58:28;;;;;;;6.47;1.80;;;7.50;72.40;;;;;;5050589;28;20061;-84
2021/11/26 04:00:54;;;;;;;6.10;1.80;;;7.60;72.60;;;;;;5050585;28;20025;-76
2021/11/26 04:03:20;;;;;;;5.53;1.75;;;7.60;72.60;;;;;;5053145;28;20488;-75
2021/11/26 04:05:46;;;;;;;3.85;1.40;;;7.60;72.60;;;;;;5053902;28;20056;-76
2021/11/26 04:08:13;;;;;;;5.13;1.50;;;7.60;72.60;;;;;;5053836;28;20036;-79
2021/11/26 04:10:39;;;;;;;4.40;1.40;;;7.60;72.60;;;;;;5054401;28;20033;-76
2021/11/26 04:13:05;;;;;;;6.88;1.80;;;7.70;72.70;;;;;;5053773;28;20419;-77
2021/11/26 04:15:34;;;;;;;5.32;2.67;;;7.70;72.70;;;;;;5053601;28;20040;-75
2021/11/26 04:18:01;;;;;;;3.97;1.40;;;7.70;72.70;;;;;;5054231;28;20074;-80
2021/11/26 04:20:28;;;;;;;3.83;1.60;;;7.70;72.70;;;;;;5053743;28;20028;-77
2021/11/26 04:22:54;;;;;;;8.00;1.48;;;7.80;72.80;;;;;;5035593;28;20415;-77
2021/11/26 04:25:22;;;;;;;5.97;1.73;;;7.80;72.80;;;;;;5053972;28;20404;-77
2021/11/26 04:27:49;;;;;;;6.90;1.83;;;7.80;72.80;;;;;;5053084;28;20108;-77
2021/11/26 04:30:17;;;;;;;4.53;1.45;;;7.80;72.70;;;;;;5052232;28;20472;-76
2021/11/26 04:32:45;;;;;;;4.00;2.20;;;7.80;72.70;;;;;;5051846;28;20049;-78
2021/11/26 04:35:11;;;;;;;4.50;1.50;;;7.90;72.90;;;;;;5053619;28;20031;-78
2021/11/26 04:37:38;;;;;;;4.88;1.80;;;7.80;72.60;;;;;;5053123;28;20040;-78
2021/11/26 04:40:08;;;;;;;2.75;1.30;;;7.90;72.80;;;;;;5068883;28;20021;-82
2021/11/26 04:42:34;;;;;;;4.80;1.50;;;7.90;72.80;;;;;;5051956;28;20480;-77
2021/11/26 04:45:00;;;;;;;5.47;2.00;;;7.90;72.80;;;;;;5053440;28;20053;-76
2021/11/26 04:47:26;;;;;;;3.05;1.30;;;7.90;72.70;;;;;;5053269;28;20551;-81
2021/11/26 04:49:53;;;;;;;3.90;1.13;;;7.90;72.70;;;;;;5052072;28;20025;-77
2021/11/26 04:52:19;;;;;;;3.78;1.40;;;8.00;72.90;;;;;;5053191;28;20041;-80
2021/11/26 04:54:45;;;;;;;5.07;1.77;;;8.00;72.80;;;;;;5051949;28;20163;-77
2021/11/26 04:57:11;;;;;;;4.82;1.60;;;8.00;72.90;;;;;;5052475;28;20042;-77
2021/11/26 04:59:37;;;;;;;3.28;1.20;;;8.00;72.80;;;;;;5051879;28;20041;-79
2021/11/26 05:02:03;;;;;;;2.00;1.17;;;8.10;73.00;;;;;;5052656;28;20029;-78
2021/11/26 05:04:29;;;;;;;5.05;1.95;;;8.00;72.80;;;;;;5052713;28;20467;-76
2021/11/26 05:06:55;;;;;;;4.13;1.25;;;8.10;72.90;;;;;;5051473;28;20116;-79
2021/11/26 05:09:22;;;;;;;5.68;1.38;;;8.10;72.90;;;;;;5051391;28;20038;-80
2021/11/26 05:11:48;;;;;;;5.55;3.20;;;8.10;72.90;;;;;;5052922;28;20090;-77
2021/11/26 05:14:18;;;;;;;2.95;1.20;;;8.10;72.90;;;;;;5052245;28;20078;-82
2021/11/26 05:16:44;;;;;;;2.33;1.10;;;8.10;72.90;;;;;;5052676;28;20090;-79
2021/11/26 05:19:10;;;;;;;4.32;1.48;;;8.20;73.00;;;;;;5051165;28;20060;-75
2021/11/26 05:21:36;;;;;;;3.75;1.08;;;8.20;73.00;;;;;;5052352;28;20061;-82
2021/11/26 05:24:02;;;;;;;2.80;1.40;;;8.20;73.00;;;;;;5067778;28;20063;-77
2021/11/26 05:26:28;;;;;;;4.45;1.20;;;8.20;73.00;;;;;;5052524;28;20206;-75
2021/11/26 05:28:54;;;;;;;4.07;1.77;;;8.20;72.90;;;;;;5050813;28;20029;-79
2021/11/26 05:31:21;;;;;;;3.10;1.20;;;8.20;72.90;;;;;;5050905;28;20056;-75
2021/11/26 05:33:48;;;;;;;3.85;1.45;;;8.20;73.40;;;;;;5052595;28;20044;-79
2021/11/26 05:36:15;;;;;;;5.45;2.13;;;8.30;73.10;;;;;;5067690;28;20025;-75
2021/11/26 05:38:41;;;;;;;3.78;1.30;;;8.20;72.90;;;;;;5050655;28;20033;-76
2021/11/26 05:41:07;;;;;;;3.70;1.48;;;8.20;72.90;;;;;;5052106;28;20032;-80
2021/11/26 05:43:33;;;;;;;3.50;1.27;;;8.30;73.00;;;;;;5051445;28;20403;-80
2021/11/26 05:45:59;;;;;;;3.90;1.48;;;8.30;73.00;;;;;;5050984;28;20060;-76
2021/11/26 05:48:25;;;;;;;3.67;1.02;;;8.30;73.00;;;;;;5038564;28;20036;-77
2021/11/26 05:50:51;;;;;;;3.33;1.13;;;8.30;73.00;;;;;;5028866;28;20488;-76
2021/11/26 05:53:17;;;;;;;2.97;1.30;;;8.30;73.00;;;;;;5044129;28;20642;-76
2021/11/26 05:55:43;;;;;;;3.03;1.35;;;8.30;73.00;;;;;;5028647;28;20033;-77
2021/11/26 05:58:09;;;;;;;2.95;1.58;;;8.30;73.00;;;;;;5034197;28;20032;-78
2021/11/26 06:00:35;;;;;;;1.83;0.98;;;8.30;73.00;;;;;;5030522;28;20037;-76
2021/11/26 06:03:02;;;;;;;3.45;1.52;;;8.40;73.20;;;;;;5046232;28;20441;-80
2021/11/26 06:05:29;;;;;;;5.22;1.50;;;8.40;73.60;;;;;;5047545;28;20452;-81
2021/11/26 06:07:55;;;;;;;3.53;1.00;;;8.40;73.10;;;;;;5046558;28;20063;-92
2021/11/26 06:10:22;;;;;;;5.30;1.55;;;8.40;73.10;;;;;;5046776;28;20565;-79
2021/11/26 06:12:49;;;;;;;2.67;0.90;;;8.50;73.20;;;;;;5048455;28;20071;-85
2021/11/26 06:15:18;;;;;;;2.90;1.10;;;8.40;73.00;;;;;;5048487;28;20055;-90
2021/11/26 06:17:47;;;;;;;5.20;1.15;;;8.50;73.20;;;;;;5048126;28;20036;-78
2021/11/26 06:20:14;;;;;;;6.57;2.08;;;8.50;73.10;;;;;;5047271;28;20488;-80
2021/11/26 06:22:40;;;;;;;3.20;1.48;;;8.50;73.10;;;;;;5047186;28;20124;-80
2021/11/26 06:25:08;;;;;;;5.70;0.95;;;8.50;73.10;;;;;;5044859;28;20465;-80
2021/11/26 06:27:34;;;;;;;2.75;1.00;;;8.50;73.00;;;;;;5046348;28;20128;-76
2021/11/26 06:30:00;;;;;;;3.00;1.25;;;8.60;73.20;;;;;;5047188;28;20278;-81
2021/11/26 06:32:26;;;;;;;1.10;0.80;;;8.60;73.20;;;;;;5048322;28;20053;-78
2021/11/26 06:34:52;;;;;;;3.33;1.00;;;8.60;73.10;;;;;;5043973;28;20031;-78
2021/11/26 06:37:18;;;;;;;4.93;1.23;;;8.60;73.10;;;;;;5043489;28;20076;-78
2021/11/26 06:39:45;;;;;;;4.25;1.38;;;8.70;73.30;;;;;;5025484;28;20055;-77
2021/11/26 06:42:11;;;;;;;3.35;1.15;;;8.70;73.20;;;;;;5026631;28;20025;-78
2021/11/26 06:44:37;;;;;;;5.22;1.38;;;8.70;73.30;;;;;;5045632;28;20040;-76
2021/11/26 06:47:04;;;;;;;5.70;1.27;;;8.70;73.40;;;;;;5045910;28;20099;-76
2021/11/26 06:49:30;;;;;;;4.47;0.95;;;8.70;73.60;;;;;;5045893;28;20058;-76
2021/11/26 06:51:57;;;;;;;3.25;0.88;;;8.70;73.60;;;;;;5044988;28;20381;-77
2021/11/26 06:54:23;;;;;;;4.15;1.10;;;8.80;73.90;;;;;;5044705;28;20441;-77
2021/11/26 06:56:48;;;;;;;5.07;1.55;;;8.80;73.90;;;;;;5044840;28;20082;-76
2021/11/26 06:59:15;;;;;;;5.20;1.17;;;8.80;73.90;;;;;;5044318;28;20033;-76
2021/11/26 07:01:41;;;;;;;3.70;1.15;;;8.80;73.90;;;;;;5046527;28;20025;-76
2021/11/26 07:04:09;;;;;;;2.40;1.42;;;8.80;73.90;;;;;;5061043;28;20302;-76
2021/11/26 07:06:35;;;;;;;3.53;1.27;;;8.80;73.80;;;;;;5065645;28;20226;-76
2021/11/26 07:09:03;;;;;;;2.85;1.05;;;8.90;74.00;;;;;;5037915;28;20033;-75
2021/11/26 07:11:29;;;;;;;4.72;1.55;;;8.90;74.00;;;;;;5025937;28;20486;-75
2021/11/26 07:13:55;;;;;;;4.05;1.00;;;8.90;73.90;;;;;;5025282;28;20037;-79
2021/11/26 07:16:21;;;;;;;3.50;1.25;;;8.90;73.90;;;;;;5023075;28;20029;-75
2021/11/26 07:18:47;;;;;;;5.47;1.38;;;8.90;73.90;;;;;;5025733;28;20044;-75
2021/11/26 07:21:13;;;;;;;3.00;1.05;;;8.90;73.90;;;;;;5025584;28;20029;-75
2021/11/26 07:23:39;;;;;;;3.42;1.20;;;8.90;73.90;;;;;;5024262;28;20061;-74
2021/11/26 07:26:05;;;;;;;6.60;1.45;;;8.90;73.80;;;;;;5024366;28;20068;-76
2021/11/26 07:28:31;;;;;;;5.82;1.60;;;8.90;73.80;;;;;;5024726;28;20033;-78
2021/11/26 07:30:58;;;;;;;4.18;1.95;;;8.80;73.60;;;;;;5024787;28;20048;-79
2021/11/26 07:33:24;;;;;;;5.05;1.17;;;8.90;73.90;;;;;;5045159;28;20072;-75
2021/11/26 07:35:50;;;;;;;4.88;0.90;;;8.90;73.90;;;;;;5045344;28;20080;-76
2021/11/26 07:38:16;;;;;;;2.72;1.10;;;8.90;73.90;;;;;;5049531;28;20033;-75
2021/11/26 07:40:42;;;;;;;2.92;1.15;;;8.90;73.90;;;;;;5037296;28;20515;-77
2021/11/26 07:43:08;;;;;;;5.28;1.23;;;8.90;73.90;;;;;;5038603;28;20029;-76
2021/11/26 07:45:34;;;;;;;4.78;1.45;;;8.90;73.90;;;;;;5049374;28;20045;-77
2021/11/26 07:48:00;;;;;;;3.88;1.20;;;8.90;73.90;;;;;;5011756;28;20037;-77
2021/11/26 07:50:26;;;;;;;4.15;1.20;;;8.90;73.90;;;;;;5045228;28;20032;-77
2021/11/26 07:52:52;;;;;;;2.65;1.20;;;8.90;73.90;;;;;;5035852;28;20518;-76
2021/11/26 07:55:18;;;;;;;5.45;1.40;;;8.90;73.90;;;;;;5049688;28;20021;-76
2021/11/26 07:57:45;;;;;;;6.35;1.42;;;8.90;73.90;;;;;;5049066;28;20048;-77
2021/11/26 08:00:12;;;;;;;3.22;1.25;;;8.90;73.90;;;;;;5048747;28;20180;-76
2021/11/26 08:02:39;;;;;;;4.50;1.23;;;8.90;73.90;;;;;;5044341;28;20057;-76
2021/11/26 08:05:06;;;;;;;4.43;1.60;;;8.90;73.90;;;;;;5030220;28;20033;-75
2021/11/26 08:07:32;;;;;;;4.63;1.15;;;9.00;74.10;;;;;;5027628;28;20036;-76
2021/11/26 08:09:58;;;;;;;5.60;1.42;;;9.00;74.10;;;;;;5029077;28;20073;-75
2021/11/26 08:12:24;;;;;;;3.33;1.30;;;9.00;74.00;;;;;;5028388;28;20120;-77
2021/11/26 08:14:51;;;;;;;4.50;1.45;;;9.00;74.00;;;;;;5029204;28;20374;-76
2021/11/26 08:17:18;;;;;;;4.93;1.75;;;9.10;74.20;;;;;;5028966;28;20030;-75
2021/11/26 08:19:44;;;;;;;7.90;2.05;;;9.10;74.10;;;;;;5048179;28;20075;-76
2021/11/26 08:22:12;;;;;;;5.25;1.50;;;9.10;74.10;;;;;;5048621;28;20072;-82
2021/11/26 08:24:38;;;;;;;2.42;1.02;;;9.10;74.00;;;;;;5047120;28;20033;-78
2021/11/26 08:27:04;;;;;;;4.80;1.30;;;9.10;74.00;;;;;;5046836;28;20029;-77
2021/11/26 08:29:30;;;;;;;7.45;2.88;;;9.10;73.90;;;;;;5047104;28;20100;-75
2021/11/26 08:31:56;;;;;;;5.20;2.00;;;9.10;74.00;;;;;;5047594;28;20057;-78
2021/11/26 08:34:22;;;;;;;5.47;2.13;;;9.10;73.90;;;;;;5048313;28;20041;-75
2021/11/26 08:36:48;;;;;;;3.33;1.23;;;9.20;74.10;;;;;;5048433;28;20155;-80
2021/11/26 08:39:14;;;;;;;5.68;1.38;;;9.20;74.10;;;;;;5046995;28;20488;-77
2021/11/26 08:41:41;;;;;;;3.45;1.20;;;9.20;74.10;;;;;;5046909;28;20033;-76
2021/11/26 08:44:07;;;;;;;4.90;1.25;;;9.20;74.10;;;;;;5046949;28;20025;-75
2021/11/26 08:46:33;;;;;;;3.95;1.38;;;9.30;74.20;;;;;;5030519;28;20033;-74
2021/11/26 08:49:00;;;;;;;6.18;1.30;;;9.30;74.20;;;;;;5046795;28;20056;-77
2021/11/26 08:51:30;;;;;;;4.63;1.10;;;9.40;74.30;;;;;;5046929;28;20031;-75
2021/11/26 08:53:56;;;;;;;5.38;1.63;;;9.40;74.30;;;;;;5047974;28;20064;-74
2021/11/26 08:56:24;;;;;;;4.20;1.50;;;9.40;74.30;;;;;;5047951;28;20036;-74
2021/11/26 08:58:50;;;;;;;3.05;1.23;;;9.50;74.40;;;;;;5048261;28;20033;-77
2021/11/26 09:01:16;;;;;;;5.28;1.70;;;9.60;74.50;;;;;;5046624;28;20087;-74
2021/11/26 09:03:45;;;;;;;5.32;1.25;;;9.60;74.40;;;;;;5048012;28;20116;-75
2021/11/26 09:06:14;;;;;;;2.40;1.45;;;9.60;74.40;;;;;;5046710;28;20037;-76
2021/11/26 09:08:40;;;;;;;4.60;1.10;;;9.70;74.50;;;;;;5044024;28;20032;-77
2021/11/26 09:11:06;;;;;;;3.70;1.50;;;9.80;74.60;;;;;;5038184;28;20560;-75
2021/11/26 09:13:32;;;;;;;3.78;1.73;;;9.80;74.50;;;;;;5047223;28;20068;-76
2021/11/26 09:15:58;;;;;;;4.18;1.10;;;9.80;74.40;;;;;;5046343;28;20021;-76
2021/11/26 09:18:24;;;;;;;3.03;1.50;;;9.90;74.50;;;;;;5046371;28;20037;-76
2021/11/26 09:20:53;;;;;;;5.95;1.42;;;9.90;74.50;;;;;;5048097;28;20029;-81
2021/11/26 09:23:20;;;;;;;4.03;1.30;;;10.00;74.60;;;;;;5047898;28;20139;-94
2021/11/26 09:25:47;;;;;;;4.93;0.88;;;10.00;74.50;;;;;;5049159;28;20040;-83
2021/11/26 09:28:13;;;;;;;3.80;1.20;;;10.10;74.60;;;;;;5047048;28;20063;-89
2021/11/26 09:30:40;;;;;;;3.45;1.10;;;10.10;74.60;;;;;;5031526;28;20052;-88
2021/11/26 09:33:06;;;;;;;3.88;1.00;;;10.20;74.70;;;;;;5057286;28;20056;-83
2021/11/26 09:35:35;;;;;;;5.25;1.42;;;10.20;74.60;;;;;;5067385;28;20045;-76
2021/11/26 09:38:02;;;;;;;2.67;1.05;;;10.20;74.50;;;;;;5063142;28;20127;-79
2021/11/26 09:40:30;;;;;;;4.65;1.00;;;10.30;74.60;;;;;;5067056;28;20025;-80
2021/11/26 09:42:56;;;;;;;2.70;1.10;;;10.30;74.60;;;;;;5057309;28;20052;-78
2021/11/26 09:45:26;;;;;;;5.38;1.00;;;10.30;74.50;;;;;;5045101;28;20480;-81
2021/11/26 09:47:53;;;;;;;4.32;1.23;;;10.30;74.60;;;;;;5025510;28;20124;-79
2021/11/26 09:50:21;;;;;;;3.65;1.40;;;10.30;74.90;;;;;;5027521;28;20030;-87
2021/11/26 09:52:47;;;;;;;2.80;0.93;;;10.40;75.10;;;;;;5034018;28;20063;-81
2021/11/26 09:55:17;;;;;;;3.40;1.17;;;10.40;75.20;;;;;;5047946;28;20037;-87
2021/11/26 09:57:45;;;;;;;4.90;1.33;;;10.40;75.20;;;;;;5023059;28;20497;-83
2021/11/26 10:00:14;;;;;;;5.47;1.35;;;10.40;75.20;;;;;;5034409;28;20556;-80
2021/11/26 10:02:51;;;;;;;4.35;1.20;;;10.50;75.90;;;;;;5033111;28;20079;-77
2021/11/26 10:05:17;;;;;;;3.22;0.80;;;10.50;75.30;;;;;;5046924;28;20029;-77
2021/11/26 10:07:45;;;;;;;4.57;1.10;;;10.60;75.40;;;;;;5046415;28;20083;-78
2021/11/26 10:10:13;;;;;;;3.70;1.38;;;10.60;75.30;;;;;;5030855;28;20506;-77
2021/11/26 10:12:41;;;;;;;3.58;0.95;;;10.60;75.30;;;;;;5045882;28;20088;-76
2021/11/26 10:15:07;;;;;;;3.40;1.15;;;10.60;75.30;;;;;;5039582;28;20060;-76
2021/11/26 10:17:34;;;;;;;3.53;0.95;;;10.70;75.40;;;;;;5049584;28;20592;-76
2021/11/26 10:20:08;;;;;;;3.47;1.25;;;10.70;75.40;;;;;;5036753;28;20025;-77
2021/11/26 10:22:42;;;;;;;4.82;1.38;;;10.70;75.40;;;;;;5036791;28;20024;-77
2021/11/26 10:25:15;;;;;;;2.55;1.10;;;10.70;75.30;;;;;;5028488;28;20067;-79
2021/11/26 10:27:49;;;;;;;2.08;1.00;;;10.70;75.30;;;;;;5043902;28;20058;-78
2021/11/26 10:30:34;;;;;;;3.63;1.30;;;10.70;75.30;;;;;;5021520;28;20202;-78
2021/11/26 10:33:17;;;;;;;4.03;1.50;;;10.80;75.40;;;;;;5029048;28;20523;-76
2021/11/26 10:35:55;;;;;;;2.58;1.20;;;10.80;75.30;;;;;;5045285;28;20033;-79
2021/11/26 10:38:26;;;;;;;4.03;1.52;;;10.80;75.20;;;;;;5046691;28;20033;-78
2021/11/26 10:40:55;;;;;;;2.83;0.80;;;10.80;75.20;;;;;;5046731;28;20033;-79
2021/11/26 10:43:37;;;;;;;2.40;0.90;;;10.80;75.10;;;;;;5044788;28;20103;-76
2021/11/26 10:59:33;;;;;;;2.83;0.90;;;10.80;74.90;;;;;;5045837;28;20523;-77
2021/11/26 11:01:59;;;;;;;3.00;0.98;;;10.80;74.90;;;;;;5056130;28;20061;-79
2021/11/26 11:04:27;;;;;;;2.17;0.93;;;10.80;74.90;;;;;;5046500;28;20115;-77
2021/11/26 11:07:05;;;;;;;1.67;0.98;;;10.80;74.90;;;;;;5045328;28;20060;-78
2021/11/26 11:09:44;;;;;;;3.78;0.90;;;10.80;74.80;;;;;;5045009;28;20041;-78
2021/11/26 11:12:11;;;;;;;2.83;1.20;;;10.90;75.00;;;;;;5048457;28;20032;-78
2021/11/26 11:14:38;;;;;;;1.50;0.68;;;10.90;75.00;;;;;;5049965;28;20040;-76
2021/11/26 11:17:04;;;;;;;4.18;1.42;;;11.00;75.00;;;;;;5067596;28;20040;-77
2021/11/26 11:19:31;;;;;;;3.88;0.80;;;11.00;74.90;;;;;;5052317;28;20043;-81
2021/11/26 11:21:58;;;;;;;1.65;1.38;;;11.00;74.90;;;;;;5050237;28;20407;-79
2021/11/26 11:24:26;;;;;;;3.22;1.10;;;11.10;75.00;;;;;;5047827;28;20095;-83
2021/11/26 11:26:53;;;;;;;2.75;1.00;;;11.10;74.90;;;;;;5047975;28;20021;-78
2021/11/26 11:29:25;;;;;;;2.30;0.77;;;11.10;74.90;;;;;;5047974;28;20514;-78
2021/11/26 11:31:55;;;;;;;1.92;0.95;;;11.10;74.80;;;;;;5049685;28;20045;-76
2021/11/26 11:34:25;;;;;;;3.03;0.70;;;11.20;75.00;;;;;;5048882;28;20560;-76
2021/11/26 11:36:56;;;;;;;2.65;0.82;;;11.20;74.80;;;;;;5031487;28;20032;-77
2021/11/26 11:39:23;;;;;;;2.28;0.73;;;11.20;74.80;;;;;;5049583;28;20423;-78
2021/11/26 11:41:53;;;;;;;2.58;0.75;;;11.30;74.90;;;;;;5049064;28;20499;-76
2021/11/26 11:44:30;;;;;;;1.73;0.88;;;11.30;74.70;;;;;;5049561;28;20033;-83
2021/11/26 11:46:57;;;;;;;2.60;0.85;;;11.40;74.80;;;;;;5049999;28;20052;-81
2021/11/26 11:49:32;;;;;;;2.05;0.90;;;11.40;74.70;;;;;;5048139;28;20110;-82
2021/11/26 11:52:03;;;;;;;2.42;1.20;;;11.40;74.60;;;;;;5048146;28;20033;-76
2021/11/26 11:54:44;;;;;;;2.28;0.60;;;11.40;74.70;;;;;;5049694;28;20044;-79
2021/11/26 11:57:25;;;;;;;2.38;0.80;;;11.40;74.60;;;;;;5046851;28;20029;-76
2021/11/26 11:59:52;;;;;;;2.85;1.73;;;11.40;74.50;;;;;;5050535;28;20484;-89
2021/11/26 12:02:29;;;;;;;0.77;0.63;;;11.40;74.40;;;;;;5050300;28;20546;-85
2021/11/26 12:04:56;;;;;;;1.73;0.70;;;11.30;74.40;;;;;;5040917;28;20029;-78
2021/11/26 12:07:30;;;;;;;2.92;0.77;;;11.30;74.30;;;;;;5039347;28;20037;-78
2021/11/26 12:10:11;;;;;;;2.85;0.70;;;11.30;74.20;;;;;;5036965;28;20056;-78
2021/11/26 12:12:52;;;;;;;5.10;0.90;;;11.30;74.20;;;;;;5042225;28;20451;-76
2021/11/26 12:15:28;;;;;;;4.30;1.15;;;11.30;74.20;;;;;;5047383;28;20515;-80
2021/11/26 12:18:06;;;;;;;3.15;0.95;;;11.30;74.20;;;;;;5047670;28;20129;-78
2021/11/26 12:20:34;;;;;;;1.73;0.77;;;11.30;74.20;;;;;;5031078;28;20029;-77
2021/11/26 12:23:25;;;;;;;2.85;0.65;;;11.20;74.00;;;;;;5046910;28;20049;-77
2021/11/26 12:26:22;;;;;;;2.35;0.60;;;11.20;74.00;;;;;;5047264;28;20029;-78
2021/11/26 12:28:55;;;;;;;3.25;0.77;;;11.20;74.00;;;;;;5048355;28;20057;-80
2021/11/26 12:31:33;;;;;;;3.22;1.02;;;11.20;74.00;;;;;;5047212;28;20405;-77
2021/11/26 12:34:11;;;;;;;4.30;1.42;;;11.20;73.90;;;;;;5048576;28;20416;-81
2021/11/26 12:36:45;;;;;;;4.07;0.90;;;11.20;74.00;;;;;;5046983;28;20447;-80
2021/11/26 12:39:18;;;;;;;2.38;0.80;;;11.10;73.80;;;;;;5048639;28;20036;-83
2021/11/26 12:41:46;;;;;;;2.38;0.80;;;11.20;74.00;;;;;;5048258;28;20024;-81
2021/11/26 12:44:20;;;;;;;3.22;0.60;;;11.20;74.00;;;;;;5048168;28;20376;-82
2021/11/26 12:46:52;;;;;;;3.35;1.00;;;11.20;74.00;;;;;;5047895;28;20024;-75
2021/11/26 12:51:53;;;;;;;1.90;0.60;;;11.30;74.10;;;;;;5047961;28;20025;-80
2021/11/26 12:54:27;;;;;;;3.33;0.98;;;11.30;73.90;;;;;;5047835;28;20072;-75
2021/11/26 12:56:54;;;;;;;2.70;0.90;;;11.40;73.90;;;;;;5046785;28;20187;-77
2021/11/26 12:59:56;;;;;;;5.18;1.00;;;11.40;73.90;;;;;;5046894;28;20484;-76
2021/11/26 13:02:27;;;;;;;3.17;0.75;;;11.40;73.80;;;;;;5040706;28;20060;-77
2021/11/26 13:04:59;;;;;;;4.68;1.15;;;11.40;73.80;;;;;;5046451;28;20033;-77
2021/11/26 13:07:27;;;;;;;3.78;0.88;;;11.50;73.90;;;;;;5046221;28;20057;-82
2021/11/26 13:09:57;;;;;;;6.80;2.42;;;11.50;73.80;;;;;;5048248;28;20044;-77
2021/11/26 13:12:33;;;;;;;3.65;1.00;;;11.50;73.70;;;;;;5047763;28;20041;-81
2021/11/26 13:15:03;;;;;;;3.20;1.50;;;11.50;73.70;;;;;;5047705;28;20059;-82
2021/11/26 13:17:38;;;;;;;3.00;0.90;;;11.40;73.50;;;;;;5047359;28;20040;-79